Time;durP1;ratioP1;P1;durP2;ratioP2;P2;SDS_P1;SDS_P2;PMS_P1;PMS_P2;Temp;Humidity;BMP_temperature;BMP_pressure;BME280_temperature;BME280_humidity;BME280_pressure;Samples;Min_cycle;Max_cycle;Signal;HPM_P1;HPM_P2
2024/02/23 00:01:31;;;;;;;;;;;;;;;7.31;55.91;100602.52;107650;1254;111251;-67
2024/02/23 00:03:59;;;;;;;;;;;;;;;7.28;56.10;100598.14;107591;1255;108215;-68
2024/02/23 00:06:28;;;;;;;;;;;;;;;7.26;56.14;100598.34;107600;1251;108301;-66
2024/02/23 00:08:57;;;;;;;;;;;;;;;7.23;56.31;100606.23;107585;1251;97926;-66
2024/02/23 00:11:27;;;;;;;;;;;;;;;7.18;56.63;100604.23;107649;1251;97844;-65
2024/02/23 00:13:56;;;;;;;;;;;;;;;7.14;56.54;100604.02;107640;1251;110694;-66
2024/02/23 00:16:26;;;;;;;;;;;;;;;7.12;56.75;100601.16;107680;1251;108527;-64
2024/02/23 00:18:54;;;;;;;;;;;;;;;7.11;56.44;100601.61;107563;1254;107710;-66
2024/02/23 00:21:22;;;;;;;;;;;;;;;7.09;56.53;100614.23;107578;1251;97840;-64
2024/02/23 00:23:51;;;;;;;;;;;;;;;7.04;56.62;100614.56;107597;1253;97716;-63
2024/02/23 00:26:19;;;;;;;;;;;;;;;6.99;56.65;100614.29;107660;1254;112182;-64
2024/02/23 00:28:47;;;;;;;;;;;;;;;6.94;56.38;100610.94;107591;1255;106778;-65
2024/02/23 00:31:16;;;;;;;;;;;;;;;6.88;56.81;100617.04;107578;1251;107994;-67
2024/02/23 00:33:44;;;;;;;;;;;;;;;6.82;57.12;100620.88;107561;1251;97817;-66
2024/02/23 00:36:12;;;;;;;;;;;;;;;6.77;57.04;100627.67;107631;1251;97808;-66
2024/02/23 00:38:40;;;;;;;;;;;;;;;6.72;57.26;100618.80;107640;1251;111655;-66
2024/02/23 00:41:09;;;;;;;;;;;;;;;6.68;57.64;100619.48;107594;1254;108382;-63
2024/02/23 00:43:38;;;;;;;;;;;;;;;6.63;58.09;100621.25;107580;1255;107546;-63
2024/02/23 00:46:07;;;;;;;;;;;;;;;6.57;58.28;100621.29;107521;1256;97918;-64
2024/02/23 00:48:35;;;;;;;;;;;;;;;6.54;58.60;100617.61;107673;1251;97863;-65
2024/02/23 00:51:04;;;;;;;;;;;;;;;6.52;58.60;100614.04;107658;1253;110919;-65
2024/02/23 00:53:32;;;;;;;;;;;;;;;6.52;58.51;100617.80;107618;1253;107529;-65
2024/02/23 00:56:00;;;;;;;;;;;;;;;6.52;58.62;100620.61;107589;1254;108199;-65
2024/02/23 00:58:28;;;;;;;;;;;;;;;6.53;58.71;100621.96;107603;1254;97848;-63
2024/02/23 01:00:57;;;;;;;;;;;;;;;6.53;58.86;100620.17;107637;1254;97835;-66
2024/02/23 01:03:25;;;;;;;;;;;;;;;6.52;58.63;100615.81;107663;1254;110833;-65
2024/02/23 01:05:53;;;;;;;;;;;;;;;6.50;59.04;100615.73;107606;1254;108602;-66
2024/02/23 01:08:21;;;;;;;;;;;;;;;6.49;59.27;100616.90;107600;1254;107632;-64
2024/02/23 01:10:50;;;;;;;;;;;;;;;6.46;59.34;100617.12;107615;1254;97914;-64
2024/02/23 01:13:18;;;;;;;;;;;;;;;6.46;59.29;100616.79;107641;1251;97896;-63
2024/02/23 01:15:46;;;;;;;;;;;;;;;6.47;59.05;100613.13;107562;1255;112116;-64
2024/02/23 01:18:14;;;;;;;;;;;;;;;6.48;59.18;100613.77;107566;1254;108792;-63
2024/02/23 01:20:43;;;;;;;;;;;;;;;6.49;59.24;100616.04;107650;1251;108332;-63
2024/02/23 01:23:12;;;;;;;;;;;;;;;6.49;59.03;100617.25;107617;1251;97831;-64
2024/02/23 01:25:40;;;;;;;;;;;;;;;6.50;59.21;100620.78;107649;1250;97716;-64
2024/02/23 01:28:08;;;;;;;;;;;;;;;6.50;59.30;100615.25;107582;1254;111963;-65
2024/02/23 01:30:36;;;;;;;;;;;;;;;6.51;59.27;100619.64;107640;1254;108027;-64
2024/02/23 01:33:05;;;;;;;;;;;;;;;6.54;59.46;100623.83;107572;1254;107613;-68
2024/02/23 01:35:33;;;;;;;;;;;;;;;6.57;59.42;100616.67;107618;1256;97825;-64
2024/02/23 01:38:02;;;;;;;;;;;;;;;6.63;60.02;100620.94;107561;1254;97977;-67
2024/02/23 01:40:31;;;;;;;;;;;;;;;6.66;59.71;100623.52;107648;1254;111219;-65
2024/02/23 01:43:03;;;;;;;;;;;;;;;6.67;59.39;100620.40;107610;1254;108531;-66
2024/02/23 01:45:32;;;;;;;;;;;;;;;6.67;59.62;100622.58;107622;1256;107269;-66
2024/02/23 01:48:00;;;;;;;;;;;;;;;6.68;59.47;100620.86;107505;1256;97828;-65
2024/02/23 01:50:29;;;;;;;;;;;;;;;6.68;59.63;100622.32;107618;1256;97841;-64
2024/02/23 01:53:00;;;;;;;;;;;;;;;6.66;59.84;100621.55;107601;1257;113433;-63
2024/02/23 01:55:29;;;;;;;;;;;;;;;6.66;59.82;100623.49;107606;1254;108923;-65
2024/02/23 01:58:01;;;;;;;;;;;;;;;6.65;59.95;100624.45;107534;1253;107285;-65
2024/02/23 02:00:34;;;;;;;;;;;;;;;6.64;59.85;100619.23;107611;1254;97822;-69
2024/02/23 02:03:03;;;;;;;;;;;;;;;6.62;60.10;100618.27;107638;1256;97745;-66
2024/02/23 02:05:31;;;;;;;;;;;;;;;6.61;60.13;100622.64;107645;1251;111979;-64
2024/02/23 02:08:00;;;;;;;;;;;;;;;6.58;59.77;100621.23;107562;1254;107468;-65
2024/02/23 02:10:29;;;;;;;;;;;;;;;6.56;60.29;100623.54;107591;1254;107852;-65
2024/02/23 02:13:01;;;;;;;;;;;;;;;6.55;60.53;100621.48;107528;1252;97841;-64
2024/02/23 02:15:30;;;;;;;;;;;;;;;6.52;60.42;100617.37;107521;1254;97717;-66
2024/02/23 02:17:58;;;;;;;;;;;;;;;6.49;60.68;100618.20;107515;1256;111959;-64
2024/02/23 02:20:32;;;;;;;;;;;;;;;6.45;60.67;100617.02;107546;1254;108472;-65
2024/02/23 02:23:00;;;;;;;;;;;;;;;6.44;60.78;100618.39;107512;1254;106979;-65
2024/02/23 02:25:29;;;;;;;;;;;;;;;6.41;61.21;100616.44;107525;1254;97905;-64
2024/02/23 02:27:57;;;;;;;;;;;;;;;6.36;61.22;100614.98;107595;1255;97837;-65
2024/02/23 02:30:25;;;;;;;;;;;;;;;6.35;61.23;100614.19;107613;1254;110706;-64
2024/02/23 02:32:53;;;;;;;;;;;;;;;6.32;61.87;100613.72;107530;1254;107572;-64
2024/02/23 02:35:21;;;;;;;;;;;;;;;6.29;61.88;100612.92;107540;1256;106795;-63
2024/02/23 02:37:50;;;;;;;;;;;;;;;6.28;61.56;100614.92;107615;1254;98464;-65
2024/02/23 02:40:19;;;;;;;;;;;;;;;6.29;61.97;100609.33;107607;1256;98654;-65
2024/02/23 02:42:47;;;;;;;;;;;;;;;6.30;61.58;100608.52;107616;1256;111598;-65
2024/02/23 02:45:17;;;;;;;;;;;;;;;6.31;62.02;100607.95;107636;1251;108782;-64
2024/02/23 02:47:47;;;;;;;;;;;;;;;6.31;61.80;100612.18;107593;1256;108716;-64
2024/02/23 02:50:16;;;;;;;;;;;;;;;6.32;61.67;100612.82;107576;1257;97751;-63
2024/02/23 02:52:44;;;;;;;;;;;;;;;6.33;61.78;100607.95;107646;1254;97853;-64
2024/02/23 02:55:13;;;;;;;;;;;;;;;6.34;61.92;100608.57;107523;1251;111487;-65
2024/02/23 02:57:41;;;;;;;;;;;;;;;6.35;61.86;100613.35;107625;1254;107600;-64
2024/02/23 03:00:10;;;;;;;;;;;;;;;6.33;62.02;100622.55;107607;1257;108214;-68
2024/02/23 03:02:39;;;;;;;;;;;;;;;6.32;61.88;100616.56;107621;1255;97909;-66
2024/02/23 03:05:07;;;;;;;;;;;;;;;6.33;61.66;100606.55;107622;1254;97976;-66
2024/02/23 03:07:36;;;;;;;;;;;;;;;6.32;61.67;100611.02;107685;1251;109725;-64
2024/02/23 03:10:06;;;;;;;;;;;;;;;6.33;61.69;100606.35;107611;1253;108482;-64
2024/02/23 03:12:34;;;;;;;;;;;;;;;6.32;61.88;100605.67;107505;1251;108564;-64
2024/02/23 03:15:03;;;;;;;;;;;;;;;6.31;61.91;100610.05;107559;1254;97888;-64
2024/02/23 03:17:31;;;;;;;;;;;;;;;6.29;62.02;100613.38;107660;1254;97845;-64
2024/02/23 03:19:59;;;;;;;;;;;;;;;6.29;62.16;100614.52;107613;1254;112842;-64
2024/02/23 03:22:28;;;;;;;;;;;;;;;6.26;62.42;100617.71;107603;1255;107816;-65
2024/02/23 03:24:56;;;;;;;;;;;;;;;6.23;62.36;100615.91;107652;1256;107762;-66
2024/02/23 03:27:27;;;;;;;;;;;;;;;6.23;62.36;100613.43;107612;1254;97851;-65
2024/02/23 03:29:56;;;;;;;;;;;;;;;6.24;62.51;100611.95;107633;1254;97826;-65
2024/02/23 03:32:24;;;;;;;;;;;;;;;6.25;62.48;100617.23;107544;1254;111435;-65
2024/02/23 03:34:52;;;;;;;;;;;;;;;6.25;62.37;100618.85;107635;1256;108096;-63
2024/02/23 03:37:21;;;;;;;;;;;;;;;6.25;62.54;100630.92;107642;1257;107851;-63
2024/02/23 03:39:49;;;;;;;;;;;;;;;6.25;62.52;100631.13;107511;1254;97834;-64
2024/02/23 03:42:17;;;;;;;;;;;;;;;6.25;62.61;100635.74;107505;1256;97828;-64
2024/02/23 03:44:45;;;;;;;;;;;;;;;6.25;62.53;100626.84;107488;1252;111496;-65
2024/02/23 03:47:13;;;;;;;;;;;;;;;6.26;62.40;100624.27;107536;1251;108943;-66
2024/02/23 03:49:41;;;;;;;;;;;;;;;6.26;62.65;100616.47;107495;1256;106996;-65
2024/02/23 03:52:10;;;;;;;;;;;;;;;6.26;62.59;100621.28;107552;1254;97822;-64
2024/02/23 03:54:38;;;;;;;;;;;;;;;6.25;62.55;100618.83;107592;1254;97903;-65
2024/02/23 03:57:07;;;;;;;;;;;;;;;6.27;62.24;100616.02;107605;1256;110966;-66
2024/02/23 03:59:36;;;;;;;;;;;;;;;6.28;62.41;100611.71;107603;1254;109443;-64
2024/02/23 04:02:05;;;;;;;;;;;;;;;6.29;62.32;100611.81;107578;1254;106993;-67
2024/02/23 04:04:33;;;;;;;;;;;;;;;6.30;62.22;100614.05;107609;1251;97985;-66
2024/02/23 04:07:04;;;;;;;;;;;;;;;6.32;62.26;100609.09;107644;1255;97836;-65
2024/02/23 04:09:33;;;;;;;;;;;;;;;6.33;62.48;100610.09;107537;1251;111430;-64
2024/02/23 04:12:01;;;;;;;;;;;;;;;6.33;62.65;100606.70;107528;1254;108166;-65
2024/02/23 04:14:33;;;;;;;;;;;;;;;6.34;62.92;100606.27;107629;1256;107608;-67
2024/02/23 04:17:05;;;;;;;;;;;;;;;6.35;62.92;100600.48;107571;1253;97902;-64
2024/02/23 04:19:33;;;;;;;;;;;;;;;6.37;63.11;100595.73;107574;1251;97928;-64
2024/02/23 04:22:02;;;;;;;;;;;;;;;6.40;63.14;100598.33;107481;1254;110730;-64
2024/02/23 04:24:30;;;;;;;;;;;;;;;6.42;63.31;100601.95;107609;1257;108183;-66
2024/02/23 04:26:58;;;;;;;;;;;;;;;6.44;63.22;100599.49;107554;1251;108237;-66
2024/02/23 04:29:26;;;;;;;;;;;;;;;6.46;63.14;100603.23;107637;1257;98706;-65
2024/02/23 04:31:55;;;;;;;;;;;;;;;6.47;63.18;100603.17;107516;1251;97804;-66
2024/02/23 04:34:23;;;;;;;;;;;;;;;6.48;63.23;100600.99;107550;1254;111817;-66
2024/02/23 04:36:52;;;;;;;;;;;;;;;6.50;63.26;100600.11;107632;1251;107911;-65
2024/02/23 04:39:20;;;;;;;;;;;;;;;6.52;63.41;100597.29;107533;1254;109042;-64
2024/02/23 04:41:49;;;;;;;;;;;;;;;6.53;63.30;100592.92;107547;1251;97886;-64
2024/02/23 04:44:17;;;;;;;;;;;;;;;6.52;63.41;100591.39;107586;1255;97750;-65
2024/02/23 04:46:45;;;;;;;;;;;;;;;6.53;63.40;100593.65;107521;1254;111693;-65
2024/02/23 04:49:13;;;;;;;;;;;;;;;6.54;63.34;100597.30;107554;1254;108163;-67
2024/02/23 04:51:42;;;;;;;;;;;;;;;6.55;63.40;100599.38;107587;1254;108289;-64
2024/02/23 04:54:10;;;;;;;;;;;;;;;6.55;63.38;100597.41;107503;1254;97837;-66
2024/02/23 04:56:39;;;;;;;;;;;;;;;6.56;63.17;100602.67;107554;1256;97853;-65
2024/02/23 04:59:07;;;;;;;;;;;;;;;6.58;63.30;100605.23;107584;1254;110978;-66
2024/02/23 05:01:38;;;;;;;;;;;;;;;6.57;63.11;100610.25;107610;1256;107932;-67
2024/02/23 05:04:06;;;;;;;;;;;;;;;6.57;63.15;100613.10;107560;1253;107288;-69
2024/02/23 05:06:35;;;;;;;;;;;;;;;6.57;63.27;100621.84;107624;1253;97827;-65
2024/02/23 05:09:03;;;;;;;;;;;;;;;6.58;63.28;100624.77;107641;1251;97847;-65
2024/02/23 05:11:31;;;;;;;;;;;;;;;6.60;63.16;100624.88;107594;1251;110551;-65
2024/02/23 05:14:00;;;;;;;;;;;;;;;6.61;63.00;100620.84;107550;1254;108350;-66
2024/02/23 05:16:28;;;;;;;;;;;;;;;6.63;63.15;100616.09;107553;1254;107770;-65
2024/02/23 05:18:56;;;;;;;;;;;;;;;6.61;62.95;100618.73;107585;1256;97870;-65
2024/02/23 05:21:25;;;;;;;;;;;;;;;6.58;62.85;100614.63;107635;1254;97822;-65
2024/02/23 05:23:54;;;;;;;;;;;;;;;6.56;63.02;100608.73;107548;1254;111776;-67
2024/02/23 05:26:22;;;;;;;;;;;;;;;6.55;63.23;100610.02;107585;1254;107769;-67
2024/02/23 05:28:50;;;;;;;;;;;;;;;6.56;63.46;100614.98;107523;1254;106797;-65
2024/02/23 05:31:19;;;;;;;;;;;;;;;6.59;63.46;100616.21;107512;1251;97819;-66
2024/02/23 05:33:47;;;;;;;;;;;;;;;6.61;63.34;100617.67;107501;1254;97838;-66
2024/02/23 05:36:18;;;;;;;;;;;;;;;6.65;63.57;100616.82;107581;1251;111947;-67
2024/02/23 05:38:46;;;;;;;;;;;;;;;6.69;63.57;100615.29;107620;1251;106856;-66
2024/02/23 05:41:14;;;;;;;;;;;;;;;6.68;63.55;100612.46;107550;1251;108221;-67
2024/02/23 05:43:43;;;;;;;;;;;;;;;6.71;63.64;100616.00;107597;1254;98262;-65
2024/02/23 05:46:11;;;;;;;;;;;;;;;6.75;63.77;100614.48;107563;1254;97718;-67
2024/02/23 05:48:39;;;;;;;;;;;;;;;6.78;63.64;100616.60;107639;1253;111720;-65
2024/02/23 05:51:08;;;;;;;;;;;;;;;6.81;63.79;100618.48;107552;1251;108070;-66
2024/02/23 05:53:37;;;;;;;;;;;;;;;6.81;63.54;100614.36;107487;1251;108082;-67
2024/02/23 05:56:05;;;;;;;;;;;;;;;6.74;63.58;100613.28;107421;1251;98011;-64
2024/02/23 05:58:34;;;;;;;;;;;;;;;6.67;63.69;100612.21;107592;1251;97727;-65
2024/02/23 06:01:02;;;;;;;;;;;;;;;6.64;63.69;100616.20;107555;1254;111745;-67
2024/02/23 06:03:31;;;;;;;;;;;;;;;6.66;63.85;100622.41;107536;1251;107603;-67
2024/02/23 06:05:59;;;;;;;;;;;;;;;6.73;64.00;100628.86;107605;1254;108513;-67
2024/02/23 06:08:28;;;;;;;;;;;;;;;6.81;64.19;100634.36;107662;1254;97828;-68
2024/02/23 06:10:59;;;;;;;;;;;;;;;6.86;64.16;100636.12;107597;1254;97725;-66
2024/02/23 06:13:27;;;;;;;;;;;;;;;6.89;63.87;100637.09;107588;1254;111766;-68
2024/02/23 06:15:56;;;;;;;;;;;;;;;6.95;63.76;100635.81;107656;1254;108531;-67
2024/02/23 06:18:24;;;;;;;;;;;;;;;6.96;63.83;100638.42;107562;1251;107702;-65
2024/02/23 06:20:52;;;;;;;;;;;;;;;6.97;63.72;100638.69;107534;1251;97814;-68
2024/02/23 06:23:22;;;;;;;;;;;;;;;7.03;63.80;100642.54;107566;1250;97853;-66
2024/02/23 06:25:50;;;;;;;;;;;;;;;7.08;63.59;100644.61;107622;1251;111916;-65
2024/02/23 06:28:18;;;;;;;;;;;;;;;7.14;63.46;100648.29;107623;1254;108344;-64
2024/02/23 06:30:46;;;;;;;;;;;;;;;7.19;63.28;100645.73;107590;1254;107829;-64
2024/02/23 06:33:15;;;;;;;;;;;;;;;7.24;62.96;100651.80;107536;1251;97828;-67
2024/02/23 06:35:43;;;;;;;;;;;;;;;7.28;62.95;100656.48;107488;1254;97822;-64
2024/02/23 06:38:12;;;;;;;;;;;;;;;7.35;62.96;100652.36;107480;1251;110550;-64
2024/02/23 06:40:40;;;;;;;;;;;;;;;7.42;62.51;100655.23;107490;1251;108722;-66
2024/02/23 06:43:19;;;;;;;;;;;;;;;7.47;62.53;100656.65;107439;1250;108270;-64
2024/02/23 06:45:51;;;;;;;;;;;;;;;7.49;62.33;100652.55;107468;1254;97838;-67
2024/02/23 06:48:20;;;;;;;;;;;;;;;7.50;62.30;100654.80;107501;1251;97918;-66
2024/02/23 06:50:49;;;;;;;;;;;;;;;7.51;62.23;100651.16;107693;1254;111467;-66
2024/02/23 06:53:17;;;;;;;;;;;;;;;7.50;62.30;100653.70;107684;1254;108567;-69
2024/02/23 06:55:46;;;;;;;;;;;;;;;7.48;62.40;100655.85;107635;1254;106914;-65
2024/02/23 06:58:16;;;;;;;;;;;;;;;7.49;62.34;100654.36;107599;1254;97772;-66
2024/02/23 07:00:44;;;;;;;;;;;;;;;7.51;62.53;100649.52;107471;1254;97817;-66
2024/02/23 07:03:14;;;;;;;;;;;;;;;7.53;62.44;100649.20;107498;1251;110954;-66
2024/02/23 07:05:42;;;;;;;;;;;;;;;7.56;62.33;100645.30;107606;1254;108471;-66
2024/02/23 07:08:11;;;;;;;;;;;;;;;7.61;62.50;100647.51;107650;1251;107942;-66
2024/02/23 07:10:40;;;;;;;;;;;;;;;7.68;62.59;100652.86;107610;1257;97925;-67
2024/02/23 07:13:08;;;;;;;;;;;;;;;7.72;62.43;100658.44;107508;1251;97704;-67
2024/02/23 07:15:37;;;;;;;;;;;;;;;7.75;62.54;100659.70;107581;1254;110075;-67
2024/02/23 07:18:08;;;;;;;;;;;;;;;7.81;62.53;100663.85;107658;1251;108330;-68
2024/02/23 07:20:37;;;;;;;;;;;;;;;7.87;62.51;100665.00;107569;1251;108347;-67
2024/02/23 07:23:06;;;;;;;;;;;;;;;7.93;62.45;100667.01;107503;1254;97847;-67
2024/02/23 07:25:34;;;;;;;;;;;;;;;7.98;62.42;100660.48;107521;1251;97735;-66
2024/02/23 07:28:03;;;;;;;;;;;;;;;8.00;62.23;100656.12;107624;1254;111682;-64
2024/02/23 07:30:31;;;;;;;;;;;;;;;7.99;62.17;100657.73;107645;1251;107740;-65
2024/02/23 07:32:59;;;;;;;;;;;;;;;8.01;62.34;100659.40;107474;1251;108328;-65
2024/02/23 07:35:28;;;;;;;;;;;;;;;8.00;62.28;100654.50;107575;1256;97850;-68
2024/02/23 07:37:57;;;;;;;;;;;;;;;7.99;62.48;100660.45;107497;1254;97708;-65
2024/02/23 07:40:25;;;;;;;;;;;;;;;7.96;62.67;100659.08;107572;1254;110869;-66
2024/02/23 07:42:53;;;;;;;;;;;;;;;7.94;62.65;100657.31;107516;1251;107766;-66
2024/02/23 07:45:22;;;;;;;;;;;;;;;7.96;62.76;100654.95;107497;1252;108084;-65
2024/02/23 07:47:50;;;;;;;;;;;;;;;8.03;62.82;100656.02;107674;1254;97941;-65
2024/02/23 07:50:19;;;;;;;;;;;;;;;8.08;62.72;100656.88;107636;1254;97826;-67
2024/02/23 07:52:47;;;;;;;;;;;;;;;8.16;62.77;100656.82;107649;1251;111896;-68
2024/02/23 07:55:16;;;;;;;;;;;;;;;8.23;62.59;100657.10;107480;1254;108691;-68
2024/02/23 07:57:44;;;;;;;;;;;;;;;8.33;62.37;100658.81;107507;1253;108719;-66
2024/02/23 08:00:13;;;;;;;;;;;;;;;8.42;62.08;100663.77;107634;1256;98049;-65
2024/02/23 08:02:41;;;;;;;;;;;;;;;8.47;61.86;100660.56;107618;1254;97727;-65
2024/02/23 08:05:09;;;;;;;;;;;;;;;8.49;61.81;100661.48;107590;1253;111340;-66
2024/02/23 08:07:38;;;;;;;;;;;;;;;8.50;61.62;100659.80;107651;1251;108347;-65
2024/02/23 08:10:07;;;;;;;;;;;;;;;8.54;61.75;100658.47;107588;1251;108461;-65
2024/02/23 08:12:35;;;;;;;;;;;;;;;8.55;61.64;100663.16;107613;1251;98269;-65
2024/02/23 08:15:09;;;;;;;;;;;;;;;8.54;61.73;100667.31;107553;1253;97835;-65
2024/02/23 08:17:37;;;;;;;;;;;;;;;8.56;61.76;100667.38;107699;1251;111555;-65
2024/02/23 08:20:06;;;;;;;;;;;;;;;8.60;61.85;100671.70;107515;1253;108589;-67
2024/02/23 08:22:34;;;;;;;;;;;;;;;8.69;61.80;100674.38;107674;1250;107627;-66
2024/02/23 08:25:03;;;;;;;;;;;;;;;8.87;61.73;100662.70;107566;1251;97831;-68
2024/02/23 08:27:31;;;;;;;;;;;;;;;9.01;61.08;100660.25;107592;1251;97733;-66
2024/02/23 08:29:59;;;;;;;;;;;;;;;9.12;60.69;100652.00;107504;1254;112534;-67
2024/02/23 08:32:27;;;;;;;;;;;;;;;9.20;60.40;100645.95;107592;1254;107524;-65
2024/02/23 08:35:02;;;;;;;;;;;;;;;9.26;60.14;100649.73;107581;1254;109635;-67
2024/02/23 08:37:30;;;;;;;;;;;;;;;9.37;59.75;100648.84;107435;1259;97759;-64
2024/02/23 08:39:59;;;;;;;;;;;;;;;9.47;59.27;100649.27;107604;1253;97730;-65
2024/02/23 08:42:27;;;;;;;;;;;;;;;9.50;58.60;100647.23;107670;1254;111404;-65
2024/02/23 08:44:55;;;;;;;;;;;;;;;9.54;58.36;100647.52;107637;1254;107164;-65
2024/02/23 08:47:24;;;;;;;;;;;;;;;9.62;58.23;100647.77;106996;1251;812604;-65
2024/02/23 08:49:52;;;;;;;;;;;;;;;9.74;58.06;100646.95;107609;1250;97708;-68
2024/02/23 08:52:21;;;;;;;;;;;;;;;9.84;57.40;100653.91;107571;1251;97886;-64
2024/02/23 08:54:49;;;;;;;;;;;;;;;9.94;57.06;100655.05;107589;1254;110903;-64
2024/02/23 08:57:19;;;;;;;;;;;;;;;10.08;56.91;100655.05;107595;1251;107967;-66
2024/02/23 08:59:48;;;;;;;;;;;;;;;10.32;56.96;100654.54;107599;1251;107208;-65
2024/02/23 09:02:16;;;;;;;;;;;;;;;10.55;56.42;100656.62;107591;1251;97725;-65
2024/02/23 09:04:45;;;;;;;;;;;;;;;10.79;55.89;100661.02;107544;1251;98472;-65
2024/02/23 09:07:14;;;;;;;;;;;;;;;11.02;55.27;100665.19;107654;1251;110770;-65
2024/02/23 09:09:42;;;;;;;;;;;;;;;11.26;54.57;100663.15;107573;1251;108805;-67
2024/02/23 09:12:10;;;;;;;;;;;;;;;11.52;53.10;100665.55;107575;1254;107934;-64
2024/02/23 09:14:41;;;;;;;;;;;;;;;11.81;53.25;100665.20;107526;1253;97906;-65
2024/02/23 09:17:11;;;;;;;;;;;;;;;12.07;52.83;100666.32;107685;1254;97822;-65
2024/02/23 09:19:39;;;;;;;;;;;;;;;12.38;52.71;100664.55;107663;1251;111244;-65
2024/02/23 09:22:07;;;;;;;;;;;;;;;12.64;51.64;100664.70;107629;1251;107138;-66
2024/02/23 09:24:38;;;;;;;;;;;;;;;12.93;51.96;100671.80;107567;1254;107718;-65
2024/02/23 09:27:07;;;;;;;;;;;;;;;13.25;50.61;100671.25;107519;1254;97839;-65
2024/02/23 09:29:35;;;;;;;;;;;;;;;13.49;49.21;100668.85;107694;1254;97934;-64
2024/02/23 09:32:05;;;;;;;;;;;;;;;13.75;48.22;100671.80;107586;1251;111813;-66
2024/02/23 09:34:33;;;;;;;;;;;;;;;13.99;48.41;100669.95;107607;1254;108406;-65
2024/02/23 09:37:02;;;;;;;;;;;;;;;14.52;48.40;100666.28;107617;1253;108197;-66
2024/02/23 09:39:30;;;;;;;;;;;;;;;15.29;47.33;100668.95;107606;1253;98553;-65
2024/02/23 09:42:01;;;;;;;;;;;;;;;16.23;45.91;100666.61;107559;1253;97928;-65
2024/02/23 09:44:33;;;;;;;;;;;;;;;16.98;42.67;100662.38;107555;1254;111112;-65
2024/02/23 09:47:08;;;;;;;;;;;;;;;17.45;43.48;100667.91;107599;1254;107939;-65
2024/02/23 09:49:38;;;;;;;;;;;;;;;18.39;41.51;100668.15;107572;1254;108459;-65
2024/02/23 09:52:09;;;;;;;;;;;;;;;19.30;39.98;100667.45;107567;1253;98008;-65
2024/02/23 09:54:39;;;;;;;;;;;;;;;19.95;37.67;100663.59;107575;1254;97820;-72
2024/02/23 09:57:08;;;;;;;;;;;;;;;20.72;37.97;100656.32;107556;1254;112348;-66
2024/02/23 09:59:37;;;;;;;;;;;;;;;21.49;37.77;100657.84;107581;1253;108687;-64
2024/02/23 10:02:12;;;;;;;;;;;;;;;22.28;36.14;100657.07;107600;1256;108339;-66
2024/02/23 10:04:42;;;;;;;;;;;;;;;22.80;33.11;100654.13;107561;1252;97908;-64
2024/02/23 10:07:14;;;;;;;;;;;;;;;23.18;32.41;100653.13;107636;1254;97899;-65
2024/02/23 10:09:42;;;;;;;;;;;;;;;23.62;30.48;100655.76;107603;1252;111603;-64
2024/02/23 10:12:11;;;;;;;;;;;;;;;23.98;31.33;100655.24;107550;1253;107641;-64
2024/02/23 10:14:41;;;;;;;;;;;;;;;24.38;30.17;100654.48;107520;1253;108236;-65
2024/02/23 10:17:10;;;;;;;;;;;;;;;24.74;27.78;100655.19;107621;1253;97727;-66
2024/02/23 10:19:38;;;;;;;;;;;;;;;24.78;27.73;100658.77;107591;1253;97847;-64
2024/02/23 10:22:06;;;;;;;;;;;;;;;24.52;27.99;100657.19;107595;1256;111228;-65
2024/02/23 10:24:36;;;;;;;;;;;;;;;24.23;27.11;100664.02;107600;1253;108696;-64
2024/02/23 10:27:05;;;;;;;;;;;;;;;23.90;27.55;100654.83;107619;1255;107193;-66
2024/02/23 10:29:33;;;;;;;;;;;;;;;23.96;28.51;100653.32;107580;1253;97842;-63
2024/02/23 10:32:03;;;;;;;;;;;;;;;24.47;27.24;100651.95;107561;1254;97842;-64
2024/02/23 10:34:31;;;;;;;;;;;;;;;24.87;26.42;100647.77;107441;1253;112657;-63
2024/02/23 10:37:01;;;;;;;;;;;;;;;24.91;25.49;100643.20;107525;1254;108024;-64
2024/02/23 10:39:30;;;;;;;;;;;;;;;24.87;26.00;100641.16;107500;1251;107947;-64
2024/02/23 10:42:03;;;;;;;;;;;;;;;24.78;25.47;100641.20;107536;1251;97860;-64
2024/02/23 10:44:32;;;;;;;;;;;;;;;24.91;24.86;100640.88;107633;1251;97729;-65
2024/02/23 10:47:01;;;;;;;;;;;;;;;25.01;25.48;100637.84;107548;1251;112903;-64
2024/02/23 10:49:30;;;;;;;;;;;;;;;25.45;25.42;100635.59;107613;1251;106913;-64
2024/02/23 10:52:00;;;;;;;;;;;;;;;25.83;24.04;100633.36;107564;1251;107703;-65
2024/02/23 10:54:30;;;;;;;;;;;;;;;26.05;23.71;100635.61;107521;1251;97710;-65
2024/02/23 10:56:58;;;;;;;;;;;;;;;26.25;23.16;100630.38;107538;1254;97841;-65
2024/02/23 10:59:27;;;;;;;;;;;;;;;26.34;23.71;100624.14;107585;1251;111916;-63
2024/02/23 11:01:59;;;;;;;;;;;;;;;26.13;24.05;100615.07;107519;1251;107746;-66
2024/02/23 11:04:27;;;;;;;;;;;;;;;25.39;23.81;100610.23;107510;1252;107985;-65
2024/02/23 11:06:58;;;;;;;;;;;;;;;24.66;24.36;100612.16;107617;1254;97848;-66
2024/02/23 11:09:27;;;;;;;;;;;;;;;23.96;25.03;100607.42;107530;1251;97839;-65
2024/02/23 11:11:56;;;;;;;;;;;;;;;23.35;25.62;100610.58;107580;1254;111296;-64
2024/02/23 11:14:34;;;;;;;;;;;;;;;22.89;25.61;100612.86;107632;1251;108690;-63
2024/02/23 11:17:04;;;;;;;;;;;;;;;22.20;25.40;100613.22;107526;1251;108032;-64
2024/02/23 11:19:41;;;;;;;;;;;;;;;21.50;26.38;100613.98;107625;1251;97853;-63
2024/02/23 11:22:10;;;;;;;;;;;;;;;20.80;27.01;100618.73;107599;1255;97727;-63
2024/02/23 11:24:50;;;;;;;;;;;;;;;20.23;28.20;100621.89;107622;1253;112945;-64
2024/02/23 11:27:24;;;;;;;;;;;;;;;19.84;28.58;100620.63;107604;1254;108164;-64
2024/02/23 11:30:02;;;;;;;;;;;;;;;19.48;29.27;100622.44;107608;1253;108495;-63
2024/02/23 11:32:40;;;;;;;;;;;;;;;19.17;29.64;100627.62;107588;1254;97820;-64
2024/02/23 11:35:12;;;;;;;;;;;;;;;18.86;30.26;100623.70;107464;1251;97813;-64
2024/02/23 11:37:45;;;;;;;;;;;;;;;18.63;30.50;100629.08;107762;1251;112384;-64
2024/02/23 11:40:14;;;;;;;;;;;;;;;18.45;30.65;100635.46;107513;1254;108617;-66
2024/02/23 11:42:45;;;;;;;;;;;;;;;18.21;31.15;100631.86;107538;1253;108497;-64
2024/02/23 11:45:13;;;;;;;;;;;;;;;18.19;31.56;100634.77;107575;1252;97825;-64
2024/02/23 11:47:42;;;;;;;;;;;;;;;18.18;31.60;100632.13;107570;1251;97708;-63
2024/02/23 11:50:10;;;;;;;;;;;;;;;18.13;31.79;100623.64;107538;1250;111373;-65
2024/02/23 11:52:39;;;;;;;;;;;;;;;18.17;31.93;100623.72;107573;1251;107204;-64
2024/02/23 11:55:10;;;;;;;;;;;;;;;18.19;31.83;100627.10;107511;1251;107131;-65
2024/02/23 11:57:38;;;;;;;;;;;;;;;18.20;32.06;100626.31;107501;1254;97882;-64
2024/02/23 12:00:15;;;;;;;;;;;;;;;18.29;32.47;100621.91;107560;1250;97925;-65
2024/02/23 12:02:46;;;;;;;;;;;;;;;18.40;32.09;100626.70;107589;1251;110443;-64
2024/02/23 12:05:14;;;;;;;;;;;;;;;18.33;31.92;100628.95;107564;1251;107488;-65
2024/02/23 12:07:42;;;;;;;;;;;;;;;18.17;32.04;100626.42;107524;1251;109594;-64
2024/02/23 12:10:15;;;;;;;;;;;;;;;18.02;32.03;100625.34;107532;1251;98299;-63
2024/02/23 12:12:44;;;;;;;;;;;;;;;17.90;32.23;100622.11;107583;1251;97854;-63
2024/02/23 12:15:12;;;;;;;;;;;;;;;17.79;32.56;100617.24;107608;1250;110247;-65
2024/02/23 12:17:46;;;;;;;;;;;;;;;17.77;32.59;100617.48;107596;1251;107529;-64
2024/02/23 12:20:15;;;;;;;;;;;;;;;17.75;33.34;100616.95;107593;1254;107790;-64
2024/02/23 12:22:44;;;;;;;;;;;;;;;17.80;33.16;100620.73;107501;1251;97973;-64
2024/02/23 12:25:12;;;;;;;;;;;;;;;17.80;33.08;100616.55;107632;1251;97890;-65
2024/02/23 12:27:43;;;;;;;;;;;;;;;17.80;33.35;100615.80;107533;1253;111972;-63
2024/02/23 12:30:17;;;;;;;;;;;;;;;17.80;33.66;100613.33;107647;1254;108015;-64
2024/02/23 12:32:46;;;;;;;;;;;;;;;17.79;33.46;100609.72;107565;1254;105819;-66
2024/02/23 12:35:14;;;;;;;;;;;;;;;17.75;33.44;100615.90;107494;1251;97912;-67
2024/02/23 12:37:45;;;;;;;;;;;;;;;17.71;33.26;100619.10;107612;1251;97840;-64